Terminal Aerodrome Forecast
Issued by NWS Detroit/Pontiac, MI

Home | Current Version | Previous Version | Text Only | Print | Product List | Glossary On
Versions: 1 2 3 4 5 6 7 8 9 10 11 12 13 14 15 16 17 18 19 20 21 22 23 24 25 26 27 28
327
FTUS43 KDTX 310247 AAA
TAFDTW
TAF AMD
KDTW 310247Z 3103/0106 04007KT P6SM SCT025 BKN035 OVC050
     FM310500 02005KT P6SM SCT035 BKN050
     FM310800 VRB04KT 4SM BR FEW025 SCT050
     FM311200 VRB05KT P6SM SCT030 BKN060
     FM010000 34005KT P6SM SCT060 BKN120=

USA.gov is the U.S. government's official web portal to all federal, state and local government web resources and services.